createdAt,value
2018-09-14T00:01:36.315Z,16.20
2018-09-14T00:04:04.412Z,16.20
2018-09-14T00:06:32.420Z,16.20
2018-09-14T00:09:00.433Z,16.30
2018-09-14T00:11:28.523Z,16.30
2018-09-14T00:13:56.577Z,16.30
2018-09-14T00:16:24.685Z,16.30
2018-09-14T00:18:52.716Z,16.30
2018-09-14T00:21:21.116Z,16.30
2018-09-14T00:23:49.176Z,16.30
2018-09-14T00:26:17.275Z,16.40
2018-09-14T00:28:45.444Z,16.40
2018-09-14T00:31:13.645Z,16.40
2018-09-14T00:33:41.672Z,16.40
2018-09-14T00:36:09.776Z,16.40
2018-09-14T00:38:37.844Z,16.40
2018-09-14T00:41:05.897Z,16.40
2018-09-14T00:43:33.891Z,16.30
2018-09-14T00:46:01.973Z,16.30
2018-09-14T00:48:30.136Z,16.20
2018-09-14T00:50:58.195Z,16.20
2018-09-14T00:53:26.414Z,16.10
2018-09-14T00:55:54.443Z,16.10
2018-09-14T00:58:22.523Z,16.00
2018-09-14T01:00:50.675Z,16.00
2018-09-14T01:03:19.147Z,16.00
2018-09-14T01:05:47.135Z,15.90
2018-09-14T01:08:15.367Z,15.80
2018-09-14T01:10:43.521Z,15.80
2018-09-14T01:13:11.609Z,15.80
2018-09-14T01:15:39.954Z,15.70
2018-09-14T01:18:08.024Z,15.70
2018-09-14T01:20:36.214Z,15.70
2018-09-14T01:23:04.371Z,15.60
2018-09-14T01:25:32.565Z,15.60
2018-09-14T01:28:00.852Z,15.60
2018-09-14T01:30:29.020Z,15.60
2018-09-14T01:32:57.102Z,15.60
2018-09-14T01:35:30.784Z,15.50
2018-09-14T01:37:59.091Z,15.50
2018-09-14T01:40:27.134Z,15.50
2018-09-14T01:42:55.221Z,15.50
2018-09-14T01:45:23.380Z,15.40
2018-09-14T01:47:51.572Z,15.40
2018-09-14T01:50:19.633Z,15.30
2018-09-14T01:52:47.921Z,15.30
2018-09-14T01:55:16.088Z,15.20
2018-09-14T01:57:44.175Z,15.20
2018-09-14T02:00:12.244Z,15.10
2018-09-14T02:02:40.306Z,15.10
2018-09-14T02:05:08.384Z,15.10
2018-09-14T02:07:36.585Z,15.10
2018-09-14T02:10:04.739Z,15.10
2018-09-14T02:12:32.891Z,15.10
2018-09-14T02:15:01.003Z,15.10
2018-09-14T02:17:29.077Z,15.10
2018-09-14T02:19:57.211Z,15.10
2018-09-14T02:22:25.313Z,15.10
2018-09-14T02:24:53.439Z,15.00
2018-09-14T02:27:21.655Z,15.00
2018-09-14T02:29:49.817Z,14.90
2018-09-14T02:32:18.035Z,14.80
2018-09-14T02:34:46.086Z,14.70
2018-09-14T02:37:14.137Z,14.70
2018-09-14T02:39:42.264Z,14.70
2018-09-14T02:42:10.304Z,14.70
2018-09-14T02:44:38.388Z,14.70
2018-09-14T02:47:06.423Z,14.70
2018-09-14T02:49:35.358Z,14.70
2018-09-14T02:52:11.623Z,14.70
2018-09-14T02:54:52.139Z,14.70
2018-09-14T02:57:30.834Z,14.60
2018-09-14T03:00:06.882Z,14.60
2018-09-14T03:02:42.052Z,14.50
2018-09-14T03:05:14.696Z,14.40
2018-09-14T03:07:47.798Z,14.40
2018-09-14T03:10:26.897Z,14.30
2018-09-14T03:13:00.906Z,14.30
2018-09-14T03:15:31.650Z,14.20
2018-09-14T03:17:59.909Z,14.10
2018-09-14T03:20:27.876Z,14.10
2018-09-14T03:22:56.083Z,14.10
2018-09-14T03:25:24.192Z,14.10
2018-09-14T03:27:52.431Z,14.10
2018-09-14T03:30:20.685Z,14.10
2018-09-14T03:32:48.792Z,14.10
2018-09-14T03:35:16.857Z,14.10
2018-09-14T03:37:44.884Z,14.10
2018-09-14T03:40:13.006Z,14.10
2018-09-14T03:42:41.583Z,14.10
2018-09-14T03:45:09.756Z,14.10
2018-09-14T03:47:39.549Z,14.10
2018-09-14T03:50:07.795Z,14.10
2018-09-14T03:52:35.898Z,14.10
2018-09-14T03:55:04.720Z,14.10
2018-09-14T03:57:32.993Z,14.10
2018-09-14T04:00:01.085Z,14.10
2018-09-14T04:02:29.329Z,14.10
2018-09-14T04:04:57.537Z,14.10
2018-09-14T04:07:25.586Z,14.00
2018-09-14T04:09:53.879Z,14.00
2018-09-14T04:12:21.981Z,14.00
2018-09-14T04:14:49.982Z,14.00
2018-09-14T04:17:18.116Z,14.00
2018-09-14T04:19:46.441Z,14.00
2018-09-14T04:22:14.547Z,14.00
2018-09-14T04:24:42.538Z,14.00
2018-09-14T04:27:24.424Z,14.00
2018-09-14T04:30:05.193Z,14.00
2018-09-14T04:32:52.379Z,14.00
2018-09-14T04:35:36.458Z,14.00
2018-09-14T04:38:27.704Z,14.00
2018-09-14T04:41:11.441Z,14.00
2018-09-14T04:43:55.957Z,14.00
2018-09-14T04:46:36.050Z,14.00
2018-09-14T04:49:10.151Z,14.00
2018-09-14T04:51:42.773Z,14.00
2018-09-14T04:54:17.668Z,14.00
2018-09-14T04:56:49.449Z,14.00
2018-09-14T04:59:21.940Z,14.00
2018-09-14T05:01:53.849Z,14.00
2018-09-14T05:04:25.670Z,14.10
2018-09-14T05:07:16.982Z,14.10
2018-09-14T05:09:56.944Z,14.10
2018-09-14T05:12:32.631Z,14.10
2018-09-14T05:15:10.822Z,14.10
2018-09-14T05:17:51.679Z,14.10
2018-09-14T05:20:36.646Z,14.10
2018-09-14T05:23:20.172Z,14.10
2018-09-14T05:26:09.770Z,14.20
2018-09-14T05:28:53.831Z,14.20
2018-09-14T05:31:48.174Z,14.20
2018-09-14T05:34:26.527Z,14.20
2018-09-14T05:37:01.804Z,14.20
2018-09-14T05:39:33.464Z,14.20
2018-09-14T05:42:01.844Z,14.20
2018-09-14T05:44:29.939Z,14.20
2018-09-14T05:46:57.953Z,14.20
2018-09-14T05:49:26.991Z,14.20
2018-09-14T05:51:55.064Z,14.20
2018-09-14T05:54:23.144Z,14.30
2018-09-14T05:56:51.186Z,14.30
2018-09-14T05:59:19.368Z,14.30
2018-09-14T06:01:47.558Z,14.30
2018-09-14T06:04:15.614Z,14.40
2018-09-14T06:06:43.846Z,14.40
2018-09-14T06:09:12.839Z,14.40
2018-09-14T06:11:41.199Z,14.40
2018-09-14T06:14:09.344Z,14.40
2018-09-14T06:16:37.736Z,14.50
2018-09-14T06:19:05.892Z,14.50
2018-09-14T06:21:33.877Z,14.50
2018-09-14T06:24:01.931Z,14.40
2018-09-14T06:26:30.094Z,14.40
2018-09-14T06:28:58.302Z,14.50
2018-09-14T06:31:26.365Z,14.50
2018-09-14T06:33:54.439Z,14.50
2018-09-14T06:36:22.487Z,14.50
2018-09-14T06:38:50.580Z,14.50
2018-09-14T06:41:18.731Z,14.50
2018-09-14T06:43:46.992Z,14.60
2018-09-14T06:46:14.979Z,14.60
2018-09-14T06:48:43.075Z,14.70
2018-09-14T06:51:11.166Z,14.70
2018-09-14T06:53:39.227Z,14.70
2018-09-14T06:56:07.517Z,14.70
2018-09-14T06:58:35.580Z,14.80
2018-09-14T07:01:03.793Z,14.80
2018-09-14T07:03:31.807Z,14.90
2018-09-14T07:05:59.884Z,14.90
2018-09-14T07:08:28.096Z,15.00
2018-09-14T07:10:56.125Z,15.10
2018-09-14T07:13:24.324Z,15.20
2018-09-14T07:15:52.320Z,15.30
2018-09-14T07:18:20.496Z,15.50
2018-09-14T07:20:48.663Z,15.60
2018-09-14T07:23:16.738Z,15.70
2018-09-14T07:25:44.864Z,15.70
2018-09-14T07:28:12.997Z,15.60
2018-09-14T07:30:41.064Z,15.70
2018-09-14T07:33:09.328Z,15.70
2018-09-14T07:35:37.371Z,15.80
2018-09-14T07:38:05.553Z,15.90
2018-09-14T07:40:33.649Z,15.90
2018-09-14T07:43:01.799Z,15.90
2018-09-14T07:45:29.992Z,16.00
2018-09-14T07:47:58.058Z,16.10
2018-09-14T07:50:26.141Z,16.10
2018-09-14T07:52:54.192Z,16.10
2018-09-14T07:55:22.293Z,16.10
2018-09-14T07:57:50.463Z,16.00
2018-09-14T08:00:18.535Z,16.10
2018-09-14T08:02:46.712Z,16.10
2018-09-14T08:05:14.739Z,16.10
2018-09-14T08:07:42.970Z,16.00
2018-09-14T08:10:11.032Z,16.10
2018-09-14T08:12:39.075Z,16.30
2018-09-14T08:15:07.300Z,16.40
2018-09-14T08:17:35.325Z,16.60
2018-09-14T08:20:03.585Z,16.80
2018-09-14T08:22:31.575Z,17.10
2018-09-14T08:24:59.675Z,17.30
2018-09-14T08:27:27.724Z,17.60
2018-09-14T08:29:55.860Z,17.80
2018-09-14T08:32:24.031Z,17.90
2018-09-14T08:34:52.168Z,18.10
2018-09-14T08:37:20.239Z,18.20
2018-09-14T08:39:48.305Z,18.40
2018-09-14T08:42:16.404Z,18.80
2018-09-14T08:44:44.444Z,19.20
2018-09-14T08:47:12.631Z,19.50
2018-09-14T08:49:40.796Z,19.40
2018-09-14T08:52:08.904Z,19.40
2018-09-14T08:54:36.944Z,19.70
2018-09-14T08:57:05.017Z,20.10
2018-09-14T08:59:33.181Z,20.40
2018-09-14T09:02:01.487Z,20.60
2018-09-14T09:04:29.661Z,20.50
2018-09-14T09:06:57.843Z,20.40
2018-09-14T09:09:25.888Z,20.40
2018-09-14T09:11:53.999Z,20.40
2018-09-14T09:14:22.024Z,20.80
2018-09-14T09:16:50.027Z,21.10
2018-09-14T09:19:18.265Z,20.40
2018-09-14T09:21:46.265Z,20.50
2018-09-14T09:24:14.353Z,21.00
2018-09-14T09:26:42.611Z,21.50
2018-09-14T09:29:10.799Z,21.30
2018-09-14T09:31:38.875Z,21.20
2018-09-14T09:34:06.948Z,21.30
2018-09-14T09:36:34.995Z,21.70
2018-09-14T09:39:03.813Z,22.20
2018-09-14T09:41:31.862Z,22.10
2018-09-14T09:44:00.137Z,21.80
2018-09-14T09:46:28.134Z,21.60
2018-09-14T09:48:56.203Z,20.80
2018-09-14T09:51:24.376Z,20.50
2018-09-14T09:53:52.441Z,20.40
2018-09-14T09:56:20.632Z,20.40
2018-09-14T09:58:48.684Z,20.40
2018-09-14T10:01:22.322Z,20.70
2018-09-14T10:04:54.060Z,20.90
2018-09-14T10:07:25.215Z,21.10
2018-09-14T10:09:53.380Z,21.10
2018-09-14T10:12:21.505Z,20.80
2018-09-14T10:14:49.616Z,20.30
2018-09-14T10:17:17.814Z,20.20
2018-09-14T10:19:45.876Z,20.20
2018-09-14T10:22:14.067Z,20.30
2018-09-14T10:24:42.116Z,20.40
2018-09-14T10:27:10.324Z,21.20
2018-09-14T10:29:38.486Z,21.80
2018-09-14T10:32:06.973Z,21.60
2018-09-14T10:34:35.023Z,21.90
2018-09-14T10:37:03.232Z,22.20
2018-09-14T10:39:31.397Z,22.30
2018-09-14T10:41:59.508Z,22.70
2018-09-14T10:44:27.621Z,23.00
2018-09-14T10:46:55.775Z,23.30
2018-09-14T10:49:23.763Z,23.30
2018-09-14T10:51:54.461Z,23.00
2018-09-14T10:54:25.137Z,22.90
2018-09-14T10:56:56.120Z,22.60
2018-09-14T10:59:26.737Z,22.10
2018-09-14T11:01:57.964Z,22.10
2018-09-14T11:04:39.941Z,22.10
2018-09-14T11:07:10.493Z,22.40
2018-09-14T11:09:38.504Z,22.70
2018-09-14T11:12:06.735Z,23.00
2018-09-14T11:14:46.748Z,23.40
2018-09-14T11:17:14.772Z,23.80
2018-09-14T11:19:43.060Z,24.00
2018-09-14T11:22:11.112Z,23.80
2018-09-14T11:24:39.311Z,23.70
2018-09-14T11:27:07.277Z,23.40
2018-09-14T11:29:35.392Z,23.30
2018-09-14T11:32:13.453Z,23.00
2018-09-14T11:34:41.558Z,23.00
2018-09-14T11:37:09.628Z,22.90
2018-09-14T11:39:37.692Z,22.70
2018-09-14T11:42:05.745Z,22.50
2018-09-14T11:44:33.823Z,22.40
2018-09-14T11:47:02.000Z,22.30
2018-09-14T11:49:30.199Z,22.40
2018-09-14T11:51:58.243Z,22.40
2018-09-14T11:54:26.435Z,22.80
2018-09-14T11:56:54.376Z,23.10
2018-09-14T11:59:22.692Z,23.20
2018-09-14T12:01:50.989Z,23.70
2018-09-14T12:04:19.230Z,23.90
2018-09-14T12:06:47.209Z,24.20
2018-09-14T12:09:15.339Z,24.70
2018-09-14T12:11:43.468Z,24.90
2018-09-14T12:14:11.555Z,24.80
2018-09-14T12:16:39.909Z,24.60
2018-09-14T12:19:08.187Z,24.60
2018-09-14T12:21:36.269Z,24.60
2018-09-14T12:24:04.818Z,24.60
2018-09-14T12:26:32.921Z,24.40
2018-09-14T12:29:01.227Z,24.20
2018-09-14T12:31:29.256Z,23.90
2018-09-14T12:33:57.355Z,23.20
2018-09-14T12:36:25.420Z,22.40
2018-09-14T12:38:53.472Z,21.80
2018-09-14T12:41:21.560Z,21.30
2018-09-14T12:43:49.752Z,20.80
2018-09-14T12:46:17.884Z,20.40
2018-09-14T12:48:46.147Z,20.20
2018-09-14T12:51:14.132Z,20.00
2018-09-14T12:53:42.354Z,19.90
2018-09-14T12:56:10.445Z,19.90
2018-09-14T12:58:38.503Z,20.10
2018-09-14T13:01:06.852Z,20.60
2018-09-14T13:03:34.948Z,21.00
2018-09-14T13:06:03.076Z,21.40
2018-09-14T13:08:31.452Z,21.70
2018-09-14T13:10:59.485Z,21.80
2018-09-14T13:13:27.512Z,22.20
2018-09-14T13:15:55.643Z,22.50
2018-09-14T13:18:23.669Z,22.50
2018-09-14T13:20:51.793Z,22.50
2018-09-14T13:23:19.831Z,22.60
2018-09-14T13:25:47.985Z,22.40
2018-09-14T13:28:16.074Z,22.00
2018-09-14T13:30:44.320Z,21.60
2018-09-14T13:33:12.435Z,21.30
2018-09-14T13:35:40.493Z,21.10
2018-09-14T13:38:08.681Z,20.90
2018-09-14T13:40:36.745Z,20.70
2018-09-14T13:43:04.931Z,20.60
2018-09-14T13:45:33.028Z,20.60
2018-09-14T13:48:01.055Z,20.70
2018-09-14T13:50:29.417Z,20.90
2018-09-14T13:52:57.757Z,21.00
2018-09-14T13:55:25.807Z,21.10
2018-09-14T13:57:53.856Z,21.00
2018-09-14T14:00:21.965Z,20.80
2018-09-14T14:02:50.087Z,20.80
2018-09-14T14:05:18.213Z,20.70
2018-09-14T14:07:46.286Z,20.60
2018-09-14T14:10:14.495Z,20.50
2018-09-14T14:12:42.543Z,20.50
2018-09-14T14:15:10.658Z,20.50
2018-09-14T14:17:38.798Z,20.50
2018-09-14T14:20:06.725Z,20.90
2018-09-14T14:22:34.825Z,21.00
2018-09-14T14:25:02.961Z,21.10
2018-09-14T14:27:31.058Z,21.20
2018-09-14T14:29:59.108Z,21.40
2018-09-14T14:32:27.307Z,21.50
2018-09-14T14:34:55.384Z,21.50
2018-09-14T14:37:23.521Z,21.50
2018-09-14T14:39:51.633Z,21.60
2018-09-14T14:42:19.684Z,21.80
2018-09-14T14:44:47.777Z,21.80
2018-09-14T14:47:15.942Z,21.60
2018-09-14T14:49:44.156Z,21.60
2018-09-14T14:52:12.204Z,21.30
2018-09-14T14:54:40.285Z,21.30
2018-09-14T14:57:08.307Z,21.20
2018-09-14T14:59:36.327Z,21.20
2018-09-14T15:02:04.476Z,21.20
2018-09-14T15:04:32.568Z,21.40
2018-09-14T15:07:00.735Z,21.60
2018-09-14T15:09:28.838Z,21.80
2018-09-14T15:11:57.010Z,22.20
2018-09-14T15:14:25.292Z,22.00
2018-09-14T15:16:53.348Z,22.10
2018-09-14T15:19:21.464Z,22.30
2018-09-14T15:21:49.557Z,22.40
2018-09-14T15:24:17.557Z,22.50
2018-09-14T15:26:45.737Z,22.30
2018-09-14T15:29:14.096Z,22.20
2018-09-14T15:31:42.195Z,21.90
2018-09-14T15:34:10.136Z,21.60
2018-09-14T15:36:38.236Z,21.40
2018-09-14T15:39:09.379Z,21.30
2018-09-14T15:41:37.472Z,21.50
2018-09-14T15:44:05.613Z,21.70
2018-09-14T15:46:33.807Z,21.80
2018-09-14T15:49:01.983Z,21.80
2018-09-14T15:51:30.052Z,21.80
2018-09-14T15:53:58.248Z,21.70
2018-09-14T15:56:26.309Z,21.70
2018-09-14T15:58:54.369Z,21.60
2018-09-14T16:01:22.447Z,21.30
2018-09-14T16:03:51.439Z,21.10
2018-09-14T16:06:19.504Z,20.90
2018-09-14T16:08:47.605Z,20.70
2018-09-14T16:11:15.811Z,20.60
2018-09-14T16:13:43.920Z,20.60
2018-09-14T16:16:11.978Z,20.50
2018-09-14T16:18:40.295Z,20.50
2018-09-14T16:21:08.360Z,20.50
2018-09-14T16:23:36.628Z,20.40
2018-09-14T16:26:04.832Z,20.30
2018-09-14T16:28:32.895Z,20.20
2018-09-14T16:31:00.949Z,20.10
2018-09-14T16:33:29.048Z,20.10
2018-09-14T16:35:57.196Z,20.10
2018-09-14T16:38:25.414Z,20.10
2018-09-14T16:40:53.441Z,20.10
2018-09-14T16:43:21.531Z,20.10
2018-09-14T16:45:49.600Z,20.10
2018-09-14T16:48:17.689Z,20.00
2018-09-14T16:50:45.844Z,19.90
2018-09-14T16:53:14.095Z,19.80
2018-09-14T16:55:42.200Z,19.70
2018-09-14T16:58:10.301Z,19.50
2018-09-14T17:00:38.457Z,19.30
2018-09-14T17:03:06.616Z,19.10
2018-09-14T17:05:34.712Z,18.80
2018-09-14T17:08:02.768Z,18.60
2018-09-14T17:10:30.855Z,18.40
2018-09-14T17:12:58.908Z,18.20
2018-09-14T17:15:27.016Z,18.10
2018-09-14T17:17:55.052Z,18.10
2018-09-14T17:20:23.376Z,18.10
2018-09-14T17:22:51.456Z,18.10
2018-09-14T17:25:19.573Z,18.10
2018-09-14T17:27:47.680Z,18.00
2018-09-14T17:30:15.812Z,18.00
2018-09-14T17:32:44.089Z,17.90
2018-09-14T17:35:12.072Z,17.80
2018-09-14T17:37:40.292Z,17.70
2018-09-14T17:40:08.321Z,17.50
2018-09-14T17:42:36.441Z,17.40
2018-09-14T17:45:04.604Z,17.30
2018-09-14T17:47:32.764Z,17.20
2018-09-14T17:50:00.835Z,17.10
2018-09-14T17:52:28.902Z,16.90
2018-09-14T17:54:57.000Z,16.90
2018-09-14T17:57:25.083Z,16.80
2018-09-14T17:59:53.298Z,16.80
2018-09-14T18:02:21.289Z,16.70
2018-09-14T18:04:49.505Z,16.70
2018-09-14T18:07:17.565Z,16.70
2018-09-14T18:09:45.856Z,16.70
2018-09-14T18:12:14.124Z,16.60
2018-09-14T18:14:42.185Z,16.50
2018-09-14T18:17:10.282Z,16.50
2018-09-14T18:19:38.710Z,16.40
2018-09-14T18:22:07.069Z,16.50
2018-09-14T18:24:35.097Z,16.60
2018-09-14T18:27:03.187Z,16.60
2018-09-14T18:29:31.602Z,16.70
2018-09-14T18:31:59.716Z,16.70
2018-09-14T18:34:27.797Z,16.70
2018-09-14T18:36:55.960Z,16.70
2018-09-14T18:39:24.052Z,16.70
2018-09-14T18:41:52.101Z,16.70
2018-09-14T18:44:20.306Z,16.70
2018-09-14T18:46:48.400Z,16.70
2018-09-14T18:49:16.615Z,16.60
2018-09-14T18:51:44.756Z,16.50
2018-09-14T18:54:12.854Z,16.40
2018-09-14T18:56:40.973Z,16.30
2018-09-14T18:59:09.024Z,16.20
2018-09-14T19:01:37.231Z,16.00
2018-09-14T19:04:05.362Z,15.90
2018-09-14T19:06:33.464Z,15.80
2018-09-14T19:09:01.520Z,15.80
2018-09-14T19:11:29.619Z,15.70
2018-09-14T19:13:57.808Z,15.70
2018-09-14T19:16:25.837Z,15.60
2018-09-14T19:18:54.046Z,15.50
2018-09-14T19:21:22.293Z,15.30
2018-09-14T19:23:50.392Z,15.20
2018-09-14T19:26:18.348Z,15.00
2018-09-14T19:28:46.458Z,14.90
2018-09-14T19:31:14.600Z,14.80
2018-09-14T19:33:42.838Z,14.60
2018-09-14T19:36:10.920Z,14.50
2018-09-14T19:38:39.172Z,14.50
2018-09-14T19:41:07.272Z,14.40
2018-09-14T19:43:35.371Z,14.30
2018-09-14T19:46:03.456Z,14.30
2018-09-14T19:48:31.556Z,14.30
2018-09-14T19:50:59.603Z,14.30
2018-09-14T19:53:27.663Z,14.20
2018-09-14T19:55:55.752Z,14.30
2018-09-14T19:58:23.937Z,14.30
2018-09-14T20:00:52.097Z,14.40
2018-09-14T20:03:20.173Z,14.50
2018-09-14T20:05:48.228Z,14.60
2018-09-14T20:08:16.324Z,14.60
2018-09-14T20:10:44.368Z,14.70
2018-09-14T20:13:12.465Z,14.80
2018-09-14T20:15:40.635Z,14.80
2018-09-14T20:18:09.191Z,14.80
2018-09-14T20:20:37.204Z,14.80
2018-09-14T20:23:05.247Z,14.90
2018-09-14T20:25:33.576Z,15.00
2018-09-14T20:28:01.595Z,15.00
2018-09-14T20:30:29.735Z,15.10
2018-09-14T20:32:57.847Z,15.10
2018-09-14T20:35:25.916Z,15.20
2018-09-14T20:37:54.144Z,15.20
2018-09-14T20:40:22.169Z,15.20
2018-09-14T20:42:50.367Z,15.20
2018-09-14T20:45:18.415Z,15.10
2018-09-14T20:47:46.511Z,15.10
2018-09-14T20:50:14.608Z,14.90
2018-09-14T20:52:42.644Z,14.80
2018-09-14T20:55:10.732Z,14.80
2018-09-14T20:57:38.793Z,14.80
2018-09-14T21:00:07.186Z,14.80
2018-09-14T21:02:35.464Z,14.70
2018-09-14T21:05:03.837Z,14.70
2018-09-14T21:07:31.923Z,14.60
2018-09-14T21:09:59.980Z,14.50
2018-09-14T21:12:28.072Z,14.40
2018-09-14T21:14:56.215Z,14.40
2018-09-14T21:17:24.446Z,14.30
2018-09-14T21:19:52.514Z,14.20
2018-09-14T21:22:20.636Z,14.10
2018-09-14T21:24:48.743Z,14.10
2018-09-14T21:27:16.786Z,14.00
2018-09-14T21:29:45.105Z,14.00
2018-09-14T21:32:13.177Z,13.90
2018-09-14T21:34:41.248Z,13.80
2018-09-14T21:37:09.283Z,13.70
2018-09-14T21:39:37.384Z,13.60
2018-09-14T21:42:05.651Z,13.50
2018-09-14T21:44:33.716Z,13.40
2018-09-14T21:47:02.115Z,13.30
2018-09-14T21:49:30.279Z,13.20
2018-09-14T21:51:58.384Z,13.10
2018-09-14T21:54:26.419Z,13.00
2018-09-14T21:56:54.604Z,13.00
2018-09-14T21:59:22.616Z,13.00
2018-09-14T22:01:50.657Z,13.00
2018-09-14T22:04:18.723Z,13.00
2018-09-14T22:06:46.890Z,13.00
2018-09-14T22:09:14.991Z,13.00
2018-09-14T22:11:43.040Z,12.90
2018-09-14T22:14:11.127Z,12.90
2018-09-14T22:16:39.188Z,12.80
2018-09-14T22:19:07.285Z,12.60
2018-09-14T22:21:35.399Z,12.60
2018-09-14T22:24:03.431Z,12.50
2018-09-14T22:26:31.491Z,12.50
2018-09-14T22:28:59.539Z,12.50
2018-09-14T22:31:27.639Z,12.40
2018-09-14T22:33:55.676Z,12.40
2018-09-14T22:36:23.712Z,12.40
2018-09-14T22:38:51.985Z,12.30
2018-09-14T22:41:20.024Z,12.20
2018-09-14T22:43:48.121Z,12.10
2018-09-14T22:46:16.190Z,12.10
2018-09-14T22:48:44.248Z,12.00
2018-09-14T22:51:12.316Z,12.10
2018-09-14T22:53:40.521Z,12.10
2018-09-14T22:56:08.789Z,12.10
2018-09-14T22:58:36.824Z,12.10
2018-09-14T23:01:10.424Z,12.10
2018-09-14T23:03:38.524Z,12.10
2018-09-14T23:06:06.601Z,12.10
2018-09-14T23:08:34.891Z,12.00
2018-09-14T23:11:02.950Z,12.00
2018-09-14T23:13:31.119Z,12.00
2018-09-14T23:16:00.069Z,11.90
2018-09-14T23:18:28.782Z,12.10
2018-09-14T23:20:57.188Z,12.30
2018-09-14T23:23:25.468Z,12.40
2018-09-14T23:25:56.992Z,12.50
2018-09-14T23:28:25.070Z,12.20
2018-09-14T23:30:53.139Z,12.00
2018-09-14T23:33:21.239Z,12.00
2018-09-14T23:35:49.288Z,12.20
2018-09-14T23:38:17.382Z,12.40
2018-09-14T23:40:45.543Z,12.60
2018-09-14T23:43:13.641Z,12.80
2018-09-14T23:45:41.723Z,12.90
2018-09-14T23:48:09.820Z,13.00
2018-09-14T23:50:37.856Z,13.00
2018-09-14T23:53:05.992Z,13.00
2018-09-14T23:55:34.104Z,13.00
2018-09-14T23:58:02.276Z,13.10
